sensor_id;sensor_type;location;lat;lon;timestamp;pressure;altitude;pressure_sealevel;temperature;humidity
13867;BME280;7003;46.982;15.248;2022-12-07T00:01:26;97047.91;;;-0.05;100.00
13867;BME280;7003;46.982;15.248;2022-12-07T00:03:58;97052.38;;;0.05;100.00
13867;BME280;7003;46.982;15.248;2022-12-07T00:06:32;97048.47;;;0.07;100.00
13867;BME280;7003;46.982;15.248;2022-12-07T00:09:00;97049.50;;;0.06;100.00
13867;BME280;7003;46.982;15.248;2022-12-07T00:11:27;97045.34;;;0.15;100.00
13867;BME280;7003;46.982;15.248;2022-12-07T00:13:59;97042.19;;;0.13;100.00
13867;BME280;7003;46.982;15.248;2022-12-07T00:16:31;97046.63;;;0.18;100.00
13867;BME280;7003;46.982;15.248;2022-12-07T00:19:01;97033.81;;;0.21;100.00
13867;BME280;7003;46.982;15.248;2022-12-07T00:21:30;97031.47;;;0.15;100.00
13867;BME280;7003;46.982;15.248;2022-12-07T00:23:59;97033.28;;;-0.01;100.00
13867;BME280;7003;46.982;15.248;2022-12-07T00:26:28;97029.63;;;0.05;100.00
13867;BME280;7003;46.982;15.248;2022-12-07T00:28:57;97037.44;;;-0.05;100.00
13867;BME280;7003;46.982;15.248;2022-12-07T00:31:27;97032.22;;;-0.05;100.00
13867;BME280;7003;46.982;15.248;2022-12-07T00:33:55;97041.63;;;0.01;100.00
13867;BME280;7003;46.982;15.248;2022-12-07T00:36:25;97031.19;;;-0.09;100.00
13867;BME280;7003;46.982;15.248;2022-12-07T00:38:53;97037.69;;;-0.12;100.00
13867;BME280;7003;46.982;15.248;2022-12-07T00:41:27;97031.19;;;-0.09;100.00
13867;BME280;7003;46.982;15.248;2022-12-07T00:43:54;97037.41;;;-0.15;100.00
13867;BME280;7003;46.982;15.248;2022-12-07T00:46:25;97028.25;;;-0.23;100.00
13867;BME280;7003;46.982;15.248;2022-12-07T00:48:53;97035.88;;;-0.16;100.00
13867;BME280;7003;46.982;15.248;2022-12-07T00:51:22;97035.88;;;-0.16;100.00
13867;BME280;7003;46.982;15.248;2022-12-07T00:53:53;97035.88;;;-0.11;100.00
13867;BME280;7003;46.982;15.248;2022-12-07T00:56:22;97034.28;;;-0.07;100.00
13867;BME280;7003;46.982;15.248;2022-12-07T00:58:52;97028.31;;;-0.03;100.00
13867;BME280;7003;46.982;15.248;2022-12-07T01:01:20;97025.19;;;0.06;100.00
13867;BME280;7003;46.982;15.248;2022-12-07T01:03:53;97024.91;;;-0.03;100.00
13867;BME280;7003;46.982;15.248;2022-12-07T01:06:31;97030.13;;;-0.03;100.00
13867;BME280;7003;46.982;15.248;2022-12-07T01:09:06;97033.78;;;0.01;100.00
13867;BME280;7003;46.982;15.248;2022-12-07T01:11:38;97036.16;;;0.08;100.00
13867;BME280;7003;46.982;15.248;2022-12-07T01:14:13;97040.88;;;0.11;100.00
13867;BME280;7003;46.982;15.248;2022-12-07T01:16:50;97038.00;;;0.07;100.00
13867;BME280;7003;46.982;15.248;2022-12-07T01:19:18;97032.50;;;0.09;100.00
13867;BME280;7003;46.982;15.248;2022-12-07T01:21:50;97034.34;;;0.13;100.00
13867;BME280;7003;46.982;15.248;2022-12-07T01:24:23;97034.59;;;0.17;100.00
13867;BME280;7003;46.982;15.248;2022-12-07T01:27:00;97041.94;;;0.15;100.00
13867;BME280;7003;46.982;15.248;2022-12-07T01:29:30;97040.84;;;0.00;100.00
13867;BME280;7003;46.982;15.248;2022-12-07T01:32:07;97040.56;;;-0.13;100.00
13867;BME280;7003;46.982;15.248;2022-12-07T01:34:41;97030.09;;;-0.18;100.00
13867;BME280;7003;46.982;15.248;2022-12-07T01:37:11;97028.03;;;-0.06;100.00
13867;BME280;7003;46.982;15.248;2022-12-07T01:39:43;97020.69;;;-0.24;100.00
13867;BME280;7003;46.982;15.248;2022-12-07T01:42:12;97016.00;;;-0.17;100.00
13867;BME280;7003;46.982;15.248;2022-12-07T01:45:25;97019.88;;;-0.35;100.00
13867;BME280;7003;46.982;15.248;2022-12-07T01:48:11;97012.81;;;-0.34;100.00
13867;BME280;7003;46.982;15.248;2022-12-07T01:50:48;97009.19;;;-0.23;100.00
13867;BME280;7003;46.982;15.248;2022-12-07T01:53:18;97009.41;;;-0.30;100.00
13867;BME280;7003;46.982;15.248;2022-12-07T01:55:49;97009.44;;;-0.20;100.00
13867;BME280;7003;46.982;15.248;2022-12-07T01:58:20;97012.28;;;-0.42;100.00
13867;BME280;7003;46.982;15.248;2022-12-07T02:00:54;97005.50;;;-0.32;100.00
13867;BME280;7003;46.982;15.248;2022-12-07T02:03:27;97002.94;;;-0.17;100.00
13867;BME280;7003;46.982;15.248;2022-12-07T02:06:00;96995.31;;;-0.29;100.00
13867;BME280;7003;46.982;15.248;2022-12-07T02:08:28;97002.09;;;-0.38;100.00
13867;BME280;7003;46.982;15.248;2022-12-07T02:10:57;97000.75;;;-0.56;100.00
13867;BME280;7003;46.982;15.248;2022-12-07T02:13:31;96992.34;;;-0.68;100.00
13867;BME280;7003;46.982;15.248;2022-12-07T02:16:14;96995.28;;;-0.54;100.00
13867;BME280;7003;46.982;15.248;2022-12-07T02:18:55;96996.31;;;-0.45;100.00
13867;BME280;7003;46.982;15.248;2022-12-07T02:21:34;96990.81;;;-0.59;100.00
13867;BME280;7003;46.982;15.248;2022-12-07T02:24:27;96982.97;;;-0.54;100.00
13867;BME280;7003;46.982;15.248;2022-12-07T02:27:34;96980.91;;;-0.57;100.00
13867;BME280;7003;46.982;15.248;2022-12-07T02:30:11;96985.63;;;-0.44;100.00
13867;BME280;7003;46.982;15.248;2022-12-07T02:32:46;96980.63;;;-0.55;100.00
13867;BME280;7003;46.982;15.248;2022-12-07T02:35:19;96985.59;;;-0.54;100.00
13867;BME280;7003;46.982;15.248;2022-12-07T02:37:57;96982.44;;;-0.61;100.00
13867;BME280;7003;46.982;15.248;2022-12-07T02:40:31;96983.94;;;-0.80;100.00
13867;BME280;7003;46.982;15.248;2022-12-07T02:43:07;96991.31;;;-0.62;100.00
13867;BME280;7003;46.982;15.248;2022-12-07T02:45:40;96981.34;;;-0.75;100.00
13867;BME280;7003;46.982;15.248;2022-12-07T02:48:10;96994.94;;;-0.78;100.00
13867;BME280;7003;46.982;15.248;2022-12-07T02:50:44;96988.94;;;-0.73;100.00
13867;BME280;7003;46.982;15.248;2022-12-07T02:53:30;96990.16;;;-0.96;100.00
13867;BME280;7003;46.982;15.248;2022-12-07T02:55:59;96993.72;;;-1.12;100.00
13867;BME280;7003;46.982;15.248;2022-12-07T02:58:39;96993.25;;;-1.04;100.00
13867;BME280;7003;46.982;15.248;2022-12-07T03:01:20;96996.34;;;-1.07;100.00
13867;BME280;7003;46.982;15.248;2022-12-07T03:03:59;96996.34;;;-1.07;100.00
13867;BME280;7003;46.982;15.248;2022-12-07T03:06:32;96986.19;;;-1.04;100.00
13867;BME280;7003;46.982;15.248;2022-12-07T03:09:11;96981.53;;;-1.02;100.00
13867;BME280;7003;46.982;15.248;2022-12-07T03:11:45;96987.25;;;-1.05;100.00
13867;BME280;7003;46.982;15.248;2022-12-07T03:14:17;96982.78;;;-1.09;100.00
13867;BME280;7003;46.982;15.248;2022-12-07T03:16:52;96984.09;;;-1.07;100.00
13867;BME280;7003;46.982;15.248;2022-12-07T03:19:25;96981.22;;;-1.10;100.00
13867;BME280;7003;46.982;15.248;2022-12-07T03:21:57;96976.84;;;-0.90;100.00
13867;BME280;7003;46.982;15.248;2022-12-07T03:24:32;96966.13;;;-0.98;100.00
13867;BME280;7003;46.982;15.248;2022-12-07T03:27:06;96972.88;;;-1.07;100.00
13867;BME280;7003;46.982;15.248;2022-12-07T03:29:40;96965.03;;;-1.12;100.00
13867;BME280;7003;46.982;15.248;2022-12-07T03:32:15;96969.66;;;-1.25;100.00
13867;BME280;7003;46.982;15.248;2022-12-07T03:34:47;96968.56;;;-1.34;100.00
13867;BME280;7003;46.982;15.248;2022-12-07T03:37:23;96975.44;;;-1.18;100.00
13867;BME280;7003;46.982;15.248;2022-12-07T03:39:58;96968.19;;;-1.05;100.00
13867;BME280;7003;46.982;15.248;2022-12-07T03:42:29;96971.81;;;-1.11;100.00
13867;BME280;7003;46.982;15.248;2022-12-07T03:44:58;96969.75;;;-1.09;100.00
13867;BME280;7003;46.982;15.248;2022-12-07T03:47:33;96966.53;;;-1.22;100.00
13867;BME280;7003;46.982;15.248;2022-12-07T03:50:06;96966.97;;;-1.40;100.00
13867;BME280;7003;46.982;15.248;2022-12-07T03:52:40;96952.38;;;-1.41;100.00
13867;BME280;7003;46.982;15.248;2022-12-07T03:55:14;96953.94;;;-1.40;100.00
13867;BME280;7003;46.982;15.248;2022-12-07T03:57:46;96951.09;;;-1.33;100.00
13867;BME280;7003;46.982;15.248;2022-12-07T04:00:18;96958.38;;;-1.40;100.00
13867;BME280;7003;46.982;15.248;2022-12-07T04:02:47;96957.56;;;-1.41;100.00
13867;BME280;7003;46.982;15.248;2022-12-07T04:05:16;96954.97;;;-1.41;100.00
13867;BME280;7003;46.982;15.248;2022-12-07T04:07:43;96950.78;;;-1.42;100.00
13867;BME280;7003;46.982;15.248;2022-12-07T04:10:12;96958.63;;;-1.37;100.00
13867;BME280;7003;46.982;15.248;2022-12-07T04:12:40;96956.56;;;-1.35;100.00
13867;BME280;7003;46.982;15.248;2022-12-07T04:15:09;96956.03;;;-1.37;100.00
13867;BME280;7003;46.982;15.248;2022-12-07T04:17:37;96952.59;;;-1.47;100.00
13867;BME280;7003;46.982;15.248;2022-12-07T04:20:07;96955.88;;;-1.62;100.00
13867;BME280;7003;46.982;15.248;2022-12-07T04:22:35;96956.97;;;-1.53;100.00
13867;BME280;7003;46.982;15.248;2022-12-07T04:25:03;96957.41;;;-1.71;100.00
13867;BME280;7003;46.982;15.248;2022-12-07T04:27:31;96967.16;;;-1.51;100.00
13867;BME280;7003;46.982;15.248;2022-12-07T04:29:59;96963.31;;;-1.81;100.00
13867;BME280;7003;46.982;15.248;2022-12-07T04:32:27;96963.22;;;-1.54;100.00
13867;BME280;7003;46.982;15.248;2022-12-07T04:34:57;96958.38;;;-1.77;100.00
13867;BME280;7003;46.982;15.248;2022-12-07T04:37:29;96961.75;;;-1.82;100.00
13867;BME280;7003;46.982;15.248;2022-12-07T04:39:58;96957.53;;;-1.88;100.00
13867;BME280;7003;46.982;15.248;2022-12-07T04:42:26;96951.81;;;-1.85;100.00
13867;BME280;7003;46.982;15.248;2022-12-07T04:44:58;96952.19;;;-1.71;100.00
13867;BME280;7003;46.982;15.248;2022-12-07T04:47:26;96954.94;;;-1.88;100.00
13867;BME280;7003;46.982;15.248;2022-12-07T04:49:53;96948.88;;;-1.94;100.00
13867;BME280;7003;46.982;15.248;2022-12-07T04:52:24;96956.22;;;-1.85;100.00
13867;BME280;7003;46.982;15.248;2022-12-07T04:54:52;96954.09;;;-1.94;100.00
13867;BME280;7003;46.982;15.248;2022-12-07T04:57:19;96951.47;;;-1.94;100.00
13867;BME280;7003;46.982;15.248;2022-12-07T04:59:47;96951.69;;;-2.00;100.00
13867;BME280;7003;46.982;15.248;2022-12-07T05:02:18;96948.03;;;-2.04;100.00
13867;BME280;7003;46.982;15.248;2022-12-07T05:04:45;96949.53;;;-2.08;100.00
13867;BME280;7003;46.982;15.248;2022-12-07T05:07:16;96943.03;;;-2.11;100.00
13867;BME280;7003;46.982;15.248;2022-12-07T05:09:45;96939.91;;;-2.08;100.00
13867;BME280;7003;46.982;15.248;2022-12-07T05:12:14;96946.25;;;-1.99;100.00
13867;BME280;7003;46.982;15.248;2022-12-07T05:14:42;96950.31;;;-2.13;100.00
13867;BME280;7003;46.982;15.248;2022-12-07T05:17:09;96946.63;;;-2.17;100.00
13867;BME280;7003;46.982;15.248;2022-12-07T05:19:38;96950.00;;;-2.16;100.00
13867;BME280;7003;46.982;15.248;2022-12-07T05:22:08;96948.69;;;-2.19;100.00
13867;BME280;7003;46.982;15.248;2022-12-07T05:24:36;96950.22;;;-2.23;100.00
13867;BME280;7003;46.982;15.248;2022-12-07T05:27:03;96952.38;;;-2.15;100.00
13867;BME280;7003;46.982;15.248;2022-12-07T05:29:34;96954.94;;;-2.20;100.00
13867;BME280;7003;46.982;15.248;2022-12-07T05:32:02;96956.75;;;-2.20;100.00
13867;BME280;7003;46.982;15.248;2022-12-07T05:34:29;96953.81;;;-2.29;100.00
13867;BME280;7003;46.982;15.248;2022-12-07T05:37:00;96958.22;;;-2.29;100.00
13867;BME280;7003;46.982;15.248;2022-12-07T05:39:31;96957.19;;;-2.28;100.00
13867;BME280;7003;46.982;15.248;2022-12-07T05:41:59;96960.59;;;-2.28;100.00
13867;BME280;7003;46.982;15.248;2022-12-07T05:44:44;96955.72;;;-1.87;100.00
13867;BME280;7003;46.982;15.248;2022-12-07T05:47:13;96952.59;;;-1.84;100.00
13867;BME280;7003;46.982;15.248;2022-12-07T05:49:40;96959.13;;;-2.19;100.00
13867;BME280;7003;46.982;15.248;2022-12-07T05:52:10;96960.25;;;-2.37;100.00
13867;BME280;7003;46.982;15.248;2022-12-07T05:54:38;96958.75;;;-2.33;100.00
13867;BME280;7003;46.982;15.248;2022-12-07T05:57:09;96961.28;;;-2.38;100.00
13867;BME280;7003;46.982;15.248;2022-12-07T05:59:37;96955.78;;;-2.41;100.00
13867;BME280;7003;46.982;15.248;2022-12-07T06:02:07;96960.94;;;-2.46;100.00
13867;BME280;7003;46.982;15.248;2022-12-07T06:04:38;96968.66;;;-2.56;100.00
13867;BME280;7003;46.982;15.248;2022-12-07T06:07:06;96958.34;;;-2.46;100.00
13867;BME280;7003;46.982;15.248;2022-12-07T06:09:34;96969.19;;;-2.54;100.00
13867;BME280;7003;46.982;15.248;2022-12-07T06:12:02;96960.94;;;-2.46;100.00
13867;BME280;7003;46.982;15.248;2022-12-07T06:14:47;96962.91;;;-2.58;100.00
13867;BME280;7003;46.982;15.248;2022-12-07T06:17:19;96967.63;;;-2.55;100.00
13867;BME280;7003;46.982;15.248;2022-12-07T06:19:49;96970.97;;;-2.60;100.00
13867;BME280;7003;46.982;15.248;2022-12-07T06:22:17;96969.69;;;-2.57;100.00
13867;BME280;7003;46.982;15.248;2022-12-07T06:24:45;96971.28;;;-2.56;100.00
13867;BME280;7003;46.982;15.248;2022-12-07T06:27:13;96970.19;;;-2.60;100.00
13867;BME280;7003;46.982;15.248;2022-12-07T06:29:41;96972.50;;;-2.64;100.00
13867;BME280;7003;46.982;15.248;2022-12-07T06:32:09;96980.78;;;-2.67;100.00
13867;BME280;7003;46.982;15.248;2022-12-07T06:34:40;96978.41;;;-2.68;100.00
13867;BME280;7003;46.982;15.248;2022-12-07T06:37:11;96985.41;;;-2.74;100.00
13867;BME280;7003;46.982;15.248;2022-12-07T06:39:42;96987.25;;;-2.69;100.00
13867;BME280;7003;46.982;15.248;2022-12-07T06:42:11;96989.56;;;-2.73;100.00
13867;BME280;7003;46.982;15.248;2022-12-07T06:44:39;96994.78;;;-2.73;100.00
13867;BME280;7003;46.982;15.248;2022-12-07T06:47:12;96992.47;;;-2.69;100.00
13867;BME280;7003;46.982;15.248;2022-12-07T06:49:41;96989.84;;;-2.69;100.00
13867;BME280;7003;46.982;15.248;2022-12-07T06:52:10;97000.28;;;-2.69;100.00
13867;BME280;7003;46.982;15.248;2022-12-07T06:54:39;97000.53;;;-2.71;100.00
13867;BME280;7003;46.982;15.248;2022-12-07T06:57:08;97001.84;;;-2.68;100.00
13867;BME280;7003;46.982;15.248;2022-12-07T06:59:39;97007.63;;;-2.66;100.00
13867;BME280;7003;46.982;15.248;2022-12-07T07:02:09;97017.34;;;-2.57;100.00
13867;BME280;7003;46.982;15.248;2022-12-07T07:04:39;97014.38;;;-2.44;100.00
13867;BME280;7003;46.982;15.248;2022-12-07T07:07:15;97008.53;;;-2.29;100.00
13867;BME280;7003;46.982;15.248;2022-12-07T07:09:45;97015.00;;;-2.32;100.00
13867;BME280;7003;46.982;15.248;2022-12-07T07:12:14;97013.19;;;-2.31;100.00
13867;BME280;7003;46.982;15.248;2022-12-07T07:14:42;97017.44;;;-2.25;100.00
13867;BME280;7003;46.982;15.248;2022-12-07T07:17:11;97011.22;;;-2.19;100.00
13867;BME280;7003;46.982;15.248;2022-12-07T07:19:42;97018.63;;;-2.06;100.00
13867;BME280;7003;46.982;15.248;2022-12-07T07:22:12;97013.47;;;-2.01;100.00
13867;BME280;7003;46.982;15.248;2022-12-07T07:24:43;97025.00;;;-1.91;100.00
13867;BME280;7003;46.982;15.248;2022-12-07T07:27:11;97019.41;;;-1.78;100.00
13867;BME280;7003;46.982;15.248;2022-12-07T07:29:41;97021.41;;;-1.85;100.00
13867;BME280;7003;46.982;15.248;2022-12-07T07:32:09;97025.09;;;-1.81;100.00
13867;BME280;7003;46.982;15.248;2022-12-07T07:34:37;97024.69;;;-1.68;100.00
13867;BME280;7003;46.982;15.248;2022-12-07T07:37:05;97021.47;;;-1.80;100.00
13867;BME280;7003;46.982;15.248;2022-12-07T07:39:37;97014.75;;;-1.71;100.00
13867;BME280;7003;46.982;15.248;2022-12-07T07:42:08;97022.31;;;-1.70;100.00
13867;BME280;7003;46.982;15.248;2022-12-07T07:44:36;97018.47;;;-1.62;100.00
13867;BME280;7003;46.982;15.248;2022-12-07T07:47:04;97022.41;;;-1.60;100.00
13867;BME280;7003;46.982;15.248;2022-12-07T07:49:34;97022.81;;;-1.36;100.00
13867;BME280;7003;46.982;15.248;2022-12-07T07:52:05;97019.06;;;-1.08;100.00
13867;BME280;7003;46.982;15.248;2022-12-07T07:54:33;97029.16;;;-0.74;100.00
13867;BME280;7003;46.982;15.248;2022-12-07T07:57:02;97025.59;;;-0.48;100.00
13867;BME280;7003;46.982;15.248;2022-12-07T07:59:31;97035.06;;;-0.32;100.00
13867;BME280;7003;46.982;15.248;2022-12-07T08:01:59;97024.38;;;-0.10;100.00
13867;BME280;7003;46.982;15.248;2022-12-07T08:04:32;97028.56;;;0.16;100.00
13867;BME280;7003;46.982;15.248;2022-12-07T08:07:01;97027.53;;;0.32;100.00
13867;BME280;7003;46.982;15.248;2022-12-07T08:09:30;97026.75;;;0.57;100.00
13867;BME280;7003;46.982;15.248;2022-12-07T08:11:58;97035.66;;;0.51;100.00
13867;BME280;7003;46.982;15.248;2022-12-07T08:14:28;97035.41;;;0.53;100.00
13867;BME280;7003;46.982;15.248;2022-12-07T08:16:56;97037.50;;;0.46;100.00
13867;BME280;7003;46.982;15.248;2022-12-07T08:19:26;97036.44;;;0.36;100.00
13867;BME280;7003;46.982;15.248;2022-12-07T08:21:57;97034.31;;;0.23;100.00
13867;BME280;7003;46.982;15.248;2022-12-07T08:24:24;97042.69;;;0.25;100.00
13867;BME280;7003;46.982;15.248;2022-12-07T08:26:55;97051.59;;;0.19;100.00
13867;BME280;7003;46.982;15.248;2022-12-07T08:29:22;97045.31;;;0.20;100.00
13867;BME280;7003;46.982;15.248;2022-12-07T08:31:51;97048.75;;;0.36;100.00
13867;BME280;7003;46.982;15.248;2022-12-07T08:34:22;97056.84;;;0.45;100.00
13867;BME280;7003;46.982;15.248;2022-12-07T08:36:50;97054.19;;;0.09;100.00
13867;BME280;7003;46.982;15.248;2022-12-07T08:39:18;97058.16;;;0.22;100.00
13867;BME280;7003;46.982;15.248;2022-12-07T08:41:46;97052.38;;;0.55;100.00
13867;BME280;7003;46.982;15.248;2022-12-07T08:44:15;97054.75;;;0.47;100.00
13867;BME280;7003;46.982;15.248;2022-12-07T08:46:46;97055.28;;;0.44;100.00
13867;BME280;7003;46.982;15.248;2022-12-07T08:49:19;97047.38;;;0.79;100.00
13867;BME280;7003;46.982;15.248;2022-12-07T08:51:48;97052.63;;;0.79;100.00
13867;BME280;7003;46.982;15.248;2022-12-07T08:54:18;97059.97;;;0.92;100.00
13867;BME280;7003;46.982;15.248;2022-12-07T08:56:47;97058.38;;;0.81;100.00
13867;BME280;7003;46.982;15.248;2022-12-07T08:59:17;97063.81;;;1.10;100.00
13867;BME280;7003;46.982;15.248;2022-12-07T09:01:46;97069.25;;;1.39;100.00
13867;BME280;7003;46.982;15.248;2022-12-07T09:04:14;97066.59;;;1.49;100.00
13867;BME280;7003;46.982;15.248;2022-12-07T09:06:46;97074.97;;;1.51;100.00
13867;BME280;7003;46.982;15.248;2022-12-07T09:09:14;97080.19;;;1.61;100.00
13867;BME280;7003;46.982;15.248;2022-12-07T09:11:45;97072.59;;;1.60;100.00
13867;BME280;7003;46.982;15.248;2022-12-07T09:14:13;97071.78;;;1.59;100.00
13867;BME280;7003;46.982;15.248;2022-12-07T09:16:41;97066.06;;;1.52;100.00
13867;BME280;7003;46.982;15.248;2022-12-07T09:19:08;97071.59;;;1.45;100.00
13867;BME280;7003;46.982;15.248;2022-12-07T09:21:36;97065.81;;;1.48;100.00
13867;BME280;7003;46.982;15.248;2022-12-07T09:24:06;97066.06;;;1.52;100.00
13867;BME280;7003;46.982;15.248;2022-12-07T09:26:33;97063.47;;;1.47;100.00
13867;BME280;7003;46.982;15.248;2022-12-07T09:29:02;97066.63;;;1.44;100.00
13867;BME280;7003;46.982;15.248;2022-12-07T09:31:32;97062.41;;;1.43;100.00
13867;BME280;7003;46.982;15.248;2022-12-07T09:34:00;97060.84;;;1.42;100.00
13867;BME280;7003;46.982;15.248;2022-12-07T09:36:28;97066.66;;;1.39;100.00
13867;BME280;7003;46.982;15.248;2022-12-07T09:38:56;97060.63;;;1.38;100.00
13867;BME280;7003;46.982;15.248;2022-12-07T09:41:26;97060.78;;;1.62;100.00
13867;BME280;7003;46.982;15.248;2022-12-07T09:44:00;97058.69;;;1.59;100.00
13867;BME280;7003;46.982;15.248;2022-12-07T09:46:35;97057.03;;;1.73;100.00
13867;BME280;7003;46.982;15.248;2022-12-07T09:49:04;97049.09;;;1.88;100.00
13867;BME280;7003;46.982;15.248;2022-12-07T09:51:32;97048.91;;;1.75;100.00
13867;BME280;7003;46.982;15.248;2022-12-07T09:54:00;97053.00;;;1.42;100.00
13867;BME280;7003;46.982;15.248;2022-12-07T09:56:33;97045.16;;;1.37;100.00
13867;BME280;7003;46.982;15.248;2022-12-07T09:59:02;97045.06;;;1.57;100.00
13867;BME280;7003;46.982;15.248;2022-12-07T10:01:32;97045.66;;;1.44;100.00
13867;BME280;7003;46.982;15.248;2022-12-07T10:04:10;97038.63;;;1.24;100.00
13867;BME280;7003;46.982;15.248;2022-12-07T10:06:42;97043.00;;;1.54;100.00
13867;BME280;7003;46.982;15.248;2022-12-07T10:09:11;97038.88;;;1.33;100.00
13867;BME280;7003;46.982;15.248;2022-12-07T10:12:07;97041.97;;;1.45;100.00
13867;BME280;7003;46.982;15.248;2022-12-07T10:14:36;97029.31;;;1.62;100.00
13867;BME280;7003;46.982;15.248;2022-12-07T10:17:29;97030.56;;;1.75;100.00
13867;BME280;7003;46.982;15.248;2022-12-07T10:20:13;97025.84;;;1.77;100.00
13867;BME280;7003;46.982;15.248;2022-12-07T10:22:58;97022.81;;;1.99;100.00
13867;BME280;7003;46.982;15.248;2022-12-07T10:25:32;97017.94;;;2.21;100.00
13867;BME280;7003;46.982;15.248;2022-12-07T10:28:14;97024.06;;;2.40;100.00
13867;BME280;7003;46.982;15.248;2022-12-07T10:30:49;97015.00;;;2.56;100.00
13867;BME280;7003;46.982;15.248;2022-12-07T10:33:29;97021.09;;;2.52;100.00
13867;BME280;7003;46.982;15.248;2022-12-07T10:35:57;97022.34;;;2.59;100.00
13867;BME280;7003;46.982;15.248;2022-12-07T10:38:28;97020.22;;;2.61;100.00
13867;BME280;7003;46.982;15.248;2022-12-07T10:41:06;97012.69;;;2.50;100.00
13867;BME280;7003;46.982;15.248;2022-12-07T10:43:47;97009.72;;;2.61;100.00
13867;BME280;7003;46.982;15.248;2022-12-07T10:52:20;97008.75;;;2.81;100.00
13867;BME280;7003;46.982;15.248;2022-12-07T10:55:13;97002.81;;;3.18;100.00
13867;BME280;7003;46.982;15.248;2022-12-07T11:00:45;97000.16;;;3.42;100.00
13867;BME280;7003;46.982;15.248;2022-12-07T11:03:46;96995.16;;;3.64;100.00
13867;BME280;7003;46.982;15.248;2022-12-07T11:06:24;96996.50;;;3.80;100.00
13867;BME280;7003;46.982;15.248;2022-12-07T11:09:04;96991.75;;;4.01;100.00
13867;BME280;7003;46.982;15.248;2022-12-07T11:11:46;96997.53;;;4.82;100.00
13867;BME280;7003;46.982;15.248;2022-12-07T11:14:25;96989.53;;;4.87;100.00
13867;BME280;7003;46.982;15.248;2022-12-07T11:17:03;96996.75;;;4.81;100.00
13867;BME280;7003;46.982;15.248;2022-12-07T11:19:46;96998.50;;;5.27;100.00
13867;BME280;7003;46.982;15.248;2022-12-07T11:22:23;96995.78;;;4.91;100.00
13867;BME280;7003;46.982;15.248;2022-12-07T11:24:57;96995.81;;;5.32;100.00
13867;BME280;7003;46.982;15.248;2022-12-07T11:27:35;96994.03;;;5.27;100.00
13867;BME280;7003;46.982;15.248;2022-12-07T11:30:17;96987.78;;;5.37;100.00
13867;BME280;7003;46.982;15.248;2022-12-07T11:33:02;96980.84;;;5.91;100.00
13867;BME280;7003;46.982;15.248;2022-12-07T11:35:43;96968.69;;;5.54;100.00
13867;BME280;7003;46.982;15.248;2022-12-07T11:38:15;96973.03;;;5.86;100.00
13867;BME280;7003;46.982;15.248;2022-12-07T11:40:47;96970.72;;;6.29;100.00
13867;BME280;7003;46.982;15.248;2022-12-07T11:43:22;96966.88;;;6.88;100.00
13867;BME280;7003;46.982;15.248;2022-12-07T11:45:59;96964.94;;;7.11;100.00
13867;BME280;7003;46.982;15.248;2022-12-07T11:48:35;96955.34;;;7.41;100.00
13867;BME280;7003;46.982;15.248;2022-12-07T11:51:07;96949.13;;;7.45;100.00
13867;BME280;7003;46.982;15.248;2022-12-07T11:53:43;96948.38;;;7.62;100.00
13867;BME280;7003;46.982;15.248;2022-12-07T11:56:15;96942.31;;;7.70;100.00
13867;BME280;7003;46.982;15.248;2022-12-07T11:58:52;96946.66;;;7.83;100.00
13867;BME280;7003;46.982;15.248;2022-12-07T12:01:38;96946.06;;;8.03;100.00
13867;BME280;7003;46.982;15.248;2022-12-07T12:04:21;96949.78;;;8.20;100.00
13867;BME280;7003;46.982;15.248;2022-12-07T12:06:51;96943.53;;;8.41;100.00
13867;BME280;7003;46.982;15.248;2022-12-07T12:09:23;96948.84;;;8.88;100.00
13867;BME280;7003;46.982;15.248;2022-12-07T12:12:15;96941.41;;;9.40;100.00
13867;BME280;7003;46.982;15.248;2022-12-07T12:14:53;96931.81;;;10.10;100.00
13867;BME280;7003;46.982;15.248;2022-12-07T12:17:56;96932.88;;;10.51;100.00
13867;BME280;7003;46.982;15.248;2022-12-07T12:20:31;96934.38;;;10.97;100.00
13867;BME280;7003;46.982;15.248;2022-12-07T12:23:09;96934.59;;;11.40;100.00
13867;BME280;7003;46.982;15.248;2022-12-07T12:25:44;96940.13;;;11.60;100.00
13867;BME280;7003;46.982;15.248;2022-12-07T12:28:25;96935.06;;;11.30;100.00
13867;BME280;7003;46.982;15.248;2022-12-07T12:31:13;96935.44;;;11.69;100.00
13867;BME280;7003;46.982;15.248;2022-12-07T12:33:46;96931.63;;;11.94;100.00
13867;BME280;7003;46.982;15.248;2022-12-07T12:36:24;96923.75;;;10.39;100.00
13867;BME280;7003;46.982;15.248;2022-12-07T12:39:12;96919.03;;;9.71;100.00
13867;BME280;7003;46.982;15.248;2022-12-07T12:42:06;96929.03;;;8.13;100.00
13867;BME280;7003;46.982;15.248;2022-12-07T12:45:04;96928.19;;;8.64;100.00
13867;BME280;7003;46.982;15.248;2022-12-07T12:47:52;96937.84;;;8.60;100.00
13867;BME280;7003;46.982;15.248;2022-12-07T12:50:24;96926.69;;;8.37;100.00
13867;BME280;7003;46.982;15.248;2022-12-07T12:53:16;96926.38;;;8.30;100.00
13867;BME280;7003;46.982;15.248;2022-12-07T12:56:03;96931.50;;;8.44;100.00
13867;BME280;7003;46.982;15.248;2022-12-07T12:58:42;96928.06;;;8.52;100.00
13867;BME280;7003;46.982;15.248;2022-12-07T13:01:39;96928.59;;;8.20;100.00
13867;BME280;7003;46.982;15.248;2022-12-07T13:04:38;96932.16;;;8.15;100.00
13867;BME280;7003;46.982;15.248;2022-12-07T13:10:42;96916.47;;;7.50;100.00
13867;BME280;7003;46.982;15.248;2022-12-07T13:13:31;96919.47;;;7.09;100.00
13867;BME280;7003;46.982;15.248;2022-12-07T13:16:37;96924.69;;;6.83;100.00
13867;BME280;7003;46.982;15.248;2022-12-07T13:22:50;96918.84;;;7.03;100.00
13867;BME280;7003;46.982;15.248;2022-12-07T13:25:23;96924.13;;;6.94;100.00
13867;BME280;7003;46.982;15.248;2022-12-07T13:28:02;96923.94;;;6.91;100.00
13867;BME280;7003;46.982;15.248;2022-12-07T13:30:45;96924.91;;;6.95;100.00
13867;BME280;7003;46.982;15.248;2022-12-07T13:33:15;96917.63;;;6.70;100.00
13867;BME280;7003;46.982;15.248;2022-12-07T13:35:45;96914.88;;;6.44;100.00
13867;BME280;7003;46.982;15.248;2022-12-07T13:38:23;96918.03;;;6.24;100.00
13867;BME280;7003;46.982;15.248;2022-12-07T13:41:04;96912.41;;;6.16;100.00
13867;BME280;7003;46.982;15.248;2022-12-07T13:43:43;96916.47;;;6.00;100.00